Time;durP1;ratioP1;P1;durP2;ratioP2;P2;SDS_P1;SDS_P2;PMS_P1;PMS_P2;Temp;Humidity;BMP_temperature;BMP_pressure;BME280_temperature;BME280_humidity;BME280_pressure;Samples;Min_cycle;Max_cycle;Signal;HPM_P1;HPM_P2
2022/10/18 00:00:46;;;;;;;;;;;;;;;;;;6240600;22;20365;-89
2022/10/18 00:03:15;;;;;;;;;;;;;;;;;;6237184;22;20111;-89
2022/10/18 00:05:51;;;;;;;;;;;;;;;;;;6240944;22;20327;-89
2022/10/18 00:08:19;;;;;;;;;;;;;;;;;;6234823;22;19923;-89
2022/10/18 00:10:45;;;;;;;;;;;;;;;;;;6266554;22;19919;-90
2022/10/18 00:13:17;;;;;;;;;;;;;;;;;;6238475;22;20517;-90
2022/10/18 00:15:57;;;;;;;;;;;;;;;;;;6242150;22;19925;-89
2022/10/18 00:18:26;;;;;;;;;;;;;;;;;;6264706;22;19923;-89
2022/10/18 00:20:59;;;;;;;;;;;;;;;;;;6237885;22;19918;-89
2022/10/18 00:23:26;;;;;;;;;;;;;;;;;;6241320;22;19926;-89
2022/10/18 00:25:52;;;;;;;;;;;;;;;;;;6242063;22;20346;-90
2022/10/18 00:28:35;;;;;;;;;;;;;;;;;;6264304;22;19950;-90
2022/10/18 00:31:12;;;;;;;;;;;;;;;;;;6263423;22;20006;-89
2022/10/18 00:33:38;;;;;;;;;;;;;;;;;;6238645;22;19945;-90
2022/10/18 00:36:07;;;;;;;;;;;;;;;;;;6237828;22;20340;-89
2022/10/18 00:38:33;;;;;;;;;;;;;;;;;;6239960;22;19929;-90
2022/10/18 00:41:02;;;;;;;;;;;;;;;;;;6236999;22;20156;-89
2022/10/18 00:43:33;;;;;;;;;;;;;;;;;;6264529;22;19968;-90
2022/10/18 00:46:05;;;;;;;;;;;;;;;;;;6263131;22;20724;-89
2022/10/18 00:48:34;;;;;;;;;;;;;;;;;;6238644;22;19919;-90
2022/10/18 00:51:02;;;;;;;;;;;;;;;;;;6238034;22;20005;-88
2022/10/18 00:53:41;;;;;;;;;;;;;;;;;;6269468;22;19919;-89
2022/10/18 00:56:16;;;;;;;;;;;;;;;;;;6264055;22;19942;-88
2022/10/18 00:58:45;;;;;;;;;;;;;;;;;;6241058;22;19919;-89
2022/10/18 01:01:16;;;;;;;;;;;;;;;;;;6240086;22;19927;-89
2022/10/18 01:03:48;;;;;;;;;;;;;;;;;;6237805;22;19926;-90
2022/10/18 01:06:19;;;;;;;;;;;;;;;;;;6265031;22;20414;-90
2022/10/18 01:08:45;;;;;;;;;;;;;;;;;;6267125;22;19926;-90
2022/10/18 01:11:17;;;;;;;;;;;;;;;;;;6238478;22;20324;-89
2022/10/18 01:13:43;;;;;;;;;;;;;;;;;;6240134;22;20394;-89
2022/10/18 01:16:09;;;;;;;;;;;;;;;;;;6238677;22;19915;-89
2022/10/18 01:18:35;;;;;;;;;;;;;;;;;;6237407;22;19926;-90
2022/10/18 01:21:01;;;;;;;;;;;;;;;;;;6238081;22;20244;-90
2022/10/18 01:23:27;;;;;;;;;;;;;;;;;;6237903;22;19923;-90
2022/10/18 01:25:56;;;;;;;;;;;;;;;;;;6260397;22;19926;-89
2022/10/18 01:28:25;;;;;;;;;;;;;;;;;;6238631;22;19915;-89
2022/10/18 01:30:51;;;;;;;;;;;;;;;;;;6262031;22;20074;-89
2022/10/18 01:33:17;;;;;;;;;;;;;;;;;;6234950;22;19919;-89
2022/10/18 01:35:43;;;;;;;;;;;;;;;;;;6239005;22;19972;-89
2022/10/18 01:38:11;;;;;;;;;;;;;;;;;;6235956;22;19919;-90
2022/10/18 01:40:46;;;;;;;;;;;;;;;;;;6263835;22;20342;-89
2022/10/18 01:43:15;;;;;;;;;;;;;;;;;;6238324;22;19915;-90
2022/10/18 01:45:43;;;;;;;;;;;;;;;;;;6286319;22;19972;-90
2022/10/18 01:48:09;;;;;;;;;;;;;;;;;;6253116;22;19968;-88
2022/10/18 01:50:35;;;;;;;;;;;;;;;;;;6263093;22;19919;-88
2022/10/18 01:53:06;;;;;;;;;;;;;;;;;;6262570;22;19958;-88
2022/10/18 01:55:32;;;;;;;;;;;;;;;;;;6264740;22;19919;-89
2022/10/18 01:58:01;;;;;;;;;;;;;;;;;;6236885;22;19962;-89
2022/10/18 02:00:29;;;;;;;;;;;;;;;;;;6239632;22;19925;-88
2022/10/18 02:02:55;;;;;;;;;;;;;;;;;;6239391;22;19977;-88
2022/10/18 02:05:21;;;;;;;;;;;;;;;;;;6239832;22;20005;-89
2022/10/18 02:07:47;;;;;;;;;;;;;;;;;;6239075;22;19926;-88
2022/10/18 02:10:14;;;;;;;;;;;;;;;;;;6237625;22;19915;-88
2022/10/18 02:12:45;;;;;;;;;;;;;;;;;;6241977;22;20306;-88
2022/10/18 02:15:14;;;;;;;;;;;;;;;;;;6236449;22;19970;-89
2022/10/18 02:17:40;;;;;;;;;;;;;;;;;;6240321;22;19926;-88
2022/10/18 02:20:09;;;;;;;;;;;;;;;;;;6240616;22;19958;-89
2022/10/18 02:22:35;;;;;;;;;;;;;;;;;;6267961;22;20407;-88
2022/10/18 02:25:03;;;;;;;;;;;;;;;;;;6239117;22;19957;-89
2022/10/18 02:27:30;;;;;;;;;;;;;;;;;;6244483;22;19950;-89
2022/10/18 02:29:58;;;;;;;;;;;;;;;;;;6242483;22;19968;-88
2022/10/18 02:32:24;;;;;;;;;;;;;;;;;;6266766;22;20410;-89
2022/10/18 02:34:52;;;;;;;;;;;;;;;;;;6242047;22;19915;-89
2022/10/18 02:37:19;;;;;;;;;;;;;;;;;;6265479;22;20419;-89
2022/10/18 02:39:52;;;;;;;;;;;;;;;;;;6240388;22;19934;-89
2022/10/18 02:42:21;;;;;;;;;;;;;;;;;;6244609;22;19925;-89
2022/10/18 02:44:50;;;;;;;;;;;;;;;;;;6267476;22;20112;-89
2022/10/18 02:47:16;;;;;;;;;;;;;;;;;;6264817;22;20335;-88
2022/10/18 02:49:44;;;;;;;;;;;;;;;;;;6239907;22;19921;-89
2022/10/18 02:52:14;;;;;;;;;;;;;;;;;;6265210;22;19968;-89
2022/10/18 02:54:40;;;;;;;;;;;;;;;;;;6241021;22;20225;-88
2022/10/18 02:57:08;;;;;;;;;;;;;;;;;;6239289;22;19926;-89
2022/10/18 02:59:37;;;;;;;;;;;;;;;;;;6269041;22;20005;-88
2022/10/18 03:02:09;;;;;;;;;;;;;;;;;;6265841;22;20389;-89
2022/10/18 03:04:35;;;;;;;;;;;;;;;;;;6241934;22;19919;-88
2022/10/18 03:07:04;;;;;;;;;;;;;;;;;;6242756;22;20322;-87
2022/10/18 03:09:30;;;;;;;;;;;;;;;;;;6245931;22;19942;-88
2022/10/18 03:12:01;;;;;;;;;;;;;;;;;;6265963;22;19994;-89
2022/10/18 03:14:27;;;;;;;;;;;;;;;;;;6242764;22;19990;-89
2022/10/18 03:16:56;;;;;;;;;;;;;;;;;;6241273;22;19930;-88
2022/10/18 03:19:43;;;;;;;;;;;;;;;;;;6267615;22;20461;-89
2022/10/18 03:22:11;;;;;;;;;;;;;;;;;;6264627;22;19915;-89
2022/10/18 03:24:37;;;;;;;;;;;;;;;;;;6242475;22;19926;-89
2022/10/18 03:27:12;;;;;;;;;;;;;;;;;;6238980;22;19954;-89
2022/10/18 03:29:40;;;;;;;;;;;;;;;;;;6240853;22;19989;-89
2022/10/18 03:32:06;;;;;;;;;;;;;;;;;;6236770;22;19990;-89
2022/10/18 03:34:32;;;;;;;;;;;;;;;;;;6265972;22;20345;-89
2022/10/18 03:36:59;;;;;;;;;;;;;;;;;;6239546;22;20285;-88
2022/10/18 03:39:27;;;;;;;;;;;;;;;;;;6266979;22;19922;-89
2022/10/18 03:41:53;;;;;;;;;;;;;;;;;;6242327;22;19919;-89
2022/10/18 03:44:22;;;;;;;;;;;;;;;;;;6240088;22;19919;-89
2022/10/18 03:46:59;;;;;;;;;;;;;;;;;;6263519;22;19919;-89
2022/10/18 03:49:25;;;;;;;;;;;;;;;;;;6266907;22;20315;-88
2022/10/18 03:51:51;;;;;;;;;;;;;;;;;;6241959;22;19915;-89
2022/10/18 03:54:19;;;;;;;;;;;;;;;;;;6240961;22;19922;-89
2022/10/18 03:56:48;;;;;;;;;;;;;;;;;;6264984;22;19919;-89
2022/10/18 03:59:15;;;;;;;;;;;;;;;;;;6241171;22;20336;-88
2022/10/18 04:01:41;;;;;;;;;;;;;;;;;;6266795;22;19915;-88
2022/10/18 04:04:10;;;;;;;;;;;;;;;;;;6265537;22;19919;-89
2022/10/18 04:06:36;;;;;;;;;;;;;;;;;;6241134;22;19922;-88
2022/10/18 04:09:03;;;;;;;;;;;;;;;;;;6241730;22;19945;-88
2022/10/18 04:11:32;;;;;;;;;;;;;;;;;;6240452;22;20231;-89
2022/10/18 04:13:58;;;;;;;;;;;;;;;;;;6238093;22;19919;-89
2022/10/18 04:16:24;;;;;;;;;;;;;;;;;;6241995;22;19929;-89
2022/10/18 04:18:50;;;;;;;;;;;;;;;;;;6265245;22;20323;-89
2022/10/18 04:21:19;;;;;;;;;;;;;;;;;;6265347;22;19919;-89
2022/10/18 04:23:45;;;;;;;;;;;;;;;;;;6268499;22;19972;-87
2022/10/18 04:26:15;;;;;;;;;;;;;;;;;;6240387;22;20334;-89
2022/10/18 04:28:41;;;;;;;;;;;;;;;;;;6267687;22;19946;-89
2022/10/18 04:34:01;;;;;;;;;;;;;;;;;;6260976;22;19989;-89
2022/10/18 04:36:30;;;;;;;;;;;;;;;;;;6243062;22;20270;-89
2022/10/18 04:38:56;;;;;;;;;;;;;;;;;;6238124;22;19922;-89
2022/10/18 04:41:27;;;;;;;;;;;;;;;;;;6263702;22;20524;-89
2022/10/18 04:43:53;;;;;;;;;;;;;;;;;;6242224;22;19919;-89
2022/10/18 04:46:28;;;;;;;;;;;;;;;;;;6244813;22;19919;-89
2022/10/18 04:48:59;;;;;;;;;;;;;;;;;;6241161;22;20247;-89
2022/10/18 04:51:28;;;;;;;;;;;;;;;;;;6254911;22;20244;-89
2022/10/18 04:53:58;;;;;;;;;;;;;;;;;;6235529;22;20353;-89
2022/10/18 04:56:34;;;;;;;;;;;;;;;;;;6239418;22;19987;-89
2022/10/18 04:59:03;;;;;;;;;;;;;;;;;;6234466;22;19915;-90
2022/10/18 05:01:32;;;;;;;;;;;;;;;;;;6235728;22;20354;-90
2022/10/18 05:04:01;;;;;;;;;;;;;;;;;;6235090;22;19918;-91
2022/10/18 05:06:38;;;;;;;;;;;;;;;;;;6239961;22;20358;-90
2022/10/18 05:09:17;;;;;;;;;;;;;;;;;;6239473;22;19922;-90
2022/10/18 05:11:43;;;;;;;;;;;;;;;;;;6234335;22;19924;-91
2022/10/18 05:14:14;;;;;;;;;;;;;;;;;;6266146;22;20017;-91
2022/10/18 05:16:48;;;;;;;;;;;;;;;;;;6238860;22;20302;-90
2022/10/18 05:19:23;;;;;;;;;;;;;;;;;;6239543;22;19949;-90
2022/10/18 05:21:52;;;;;;;;;;;;;;;;;;6238791;22;19919;-90
2022/10/18 05:24:39;;;;;;;;;;;;;;;;;;6238180;22;19918;-90
2022/10/18 05:27:15;;;;;;;;;;;;;;;;;;6264295;22;20403;-90
2022/10/18 05:29:59;;;;;;;;;;;;;;;;;;6241303;22;19915;-90
2022/10/18 05:32:25;;;;;;;;;;;;;;;;;;6243070;22;19926;-91
2022/10/18 05:34:51;;;;;;;;;;;;;;;;;;6244115;22;20286;-90
2022/10/18 05:37:17;;;;;;;;;;;;;;;;;;6265539;22;19961;-90
2022/10/18 05:39:49;;;;;;;;;;;;;;;;;;6243408;22;19923;-90
2022/10/18 05:42:17;;;;;;;;;;;;;;;;;;6266327;22;20206;-90
2022/10/18 05:44:52;;;;;;;;;;;;;;;;;;6243375;22;19915;-90
2022/10/18 05:47:21;;;;;;;;;;;;;;;;;;6238633;22;19926;-90
2022/10/18 05:49:47;;;;;;;;;;;;;;;;;;6240974;22;19919;-90
2022/10/18 05:52:16;;;;;;;;;;;;;;;;;;6240710;22;19918;-90
2022/10/18 05:54:45;;;;;;;;;;;;;;;;;;6243671;22;19919;-90
2022/10/18 05:57:16;;;;;;;;;;;;;;;;;;6243159;22;19927;-90
2022/10/18 05:59:45;;;;;;;;;;;;;;;;;;6243559;22;19919;-90
2022/10/18 06:02:21;;;;;;;;;;;;;;;;;;6238606;22;19930;-90
2022/10/18 06:04:50;;;;;;;;;;;;;;;;;;6243277;22;19925;-90
2022/10/18 06:07:16;;;;;;;;;;;;;;;;;;6240471;22;20437;-89
2022/10/18 06:09:42;;;;;;;;;;;;;;;;;;6240669;22;19919;-90
2022/10/18 06:12:08;;;;;;;;;;;;;;;;;;6238435;22;19918;-91
2022/10/18 06:14:43;;;;;;;;;;;;;;;;;;6243088;22;20281;-90
2022/10/18 06:17:12;;;;;;;;;;;;;;;;;;6231733;22;19923;-91
2022/10/18 06:19:45;;;;;;;;;;;;;;;;;;6243577;22;19915;-91
2022/10/18 06:22:11;;;;;;;;;;;;;;;;;;6267213;22;19925;-91
2022/10/18 06:24:43;;;;;;;;;;;;;;;;;;6245132;22;20331;-91
2022/10/18 06:27:15;;;;;;;;;;;;;;;;;;6243538;22;19919;-91
2022/10/18 06:29:44;;;;;;;;;;;;;;;;;;6243765;22;19945;-91
2022/10/18 06:32:10;;;;;;;;;;;;;;;;;;6270113;22;19943;-90
2022/10/18 06:34:36;;;;;;;;;;;;;;;;;;6245641;22;19930;-90
2022/10/18 06:37:04;;;;;;;;;;;;;;;;;;6243309;22;19927;-91
2022/10/18 06:39:40;;;;;;;;;;;;;;;;;;;;;
2022/10/18 06:42:14;;;;;;;;;;;;;;;;;;6267178;22;20350;-91
2022/10/18 06:44:46;;;;;;;;;;;;;;;;;;6268996;22;20127;-91
2022/10/18 06:47:24;;;;;;;;;;;;;;;;;;6242927;22;19914;-91
2022/10/18 06:49:52;;;;;;;;;;;;;;;;;;6241765;22;20052;-91
2022/10/18 06:52:24;;;;;;;;;;;;;;;;;;6239531;22;19914;-91
2022/10/18 06:54:51;;;;;;;;;;;;;;;;;;6243290;22;19934;-91
2022/10/18 06:57:24;;;;;;;;;;;;;;;;;;6237979;22;20190;-91
2022/10/18 06:59:50;;;;;;;;;;;;;;;;;;6266057;22;19918;-90
2022/10/18 07:02:19;;;;;;;;;;;;;;;;;;6234921;22;19941;-91
2022/10/18 07:05:00;;;;;;;;;;;;;;;;;;6247578;22;19922;-89
2022/10/18 07:07:29;;;;;;;;;;;;;;;;;;6238937;22;19919;-90
2022/10/18 07:09:56;;;;;;;;;;;;;;;;;;6237739;22;19919;-90
2022/10/18 07:12:24;;;;;;;;;;;;;;;;;;6245854;22;19915;-90
2022/10/18 07:24:31;;;;;;;;;;;;;;;;;;6093816;23;19921;-89
2022/10/18 07:27:09;;;;;;;;;;;;;;;;;;6075290;23;20480;-89
2022/10/18 07:35:58;;;;;;;;;;;;;;;;;;6075646;23;19918;-89
2022/10/18 07:38:24;;;;;;;;;;;;;;;;;;6036594;23;19925;-88
2022/10/18 07:40:50;;;;;;;;;;;;;;;;;;6098173;22;19920;-89
2022/10/18 07:43:16;;;;;;;;;;;;;;;;;;6209609;22;20421;-89
2022/10/18 07:45:45;;;;;;;;;;;;;;;;;;6211565;22;19926;-90
2022/10/18 07:48:11;;;;;;;;;;;;;;;;;;6209239;22;19981;-90
2022/10/18 07:50:43;;;;;;;;;;;;;;;;;;6211783;22;19926;-89
2022/10/18 07:53:12;;;;;;;;;;;;;;;;;;6210840;22;19919;-89
2022/10/18 07:55:41;;;;;;;;;;;;;;;;;;6211928;22;19919;-89
2022/10/18 07:58:07;;;;;;;;;;;;;;;;;;6210685;22;19923;-89
2022/10/18 08:00:35;;;;;;;;;;;;;;;;;;6212663;22;20230;-89
2022/10/18 08:03:07;;;;;;;;;;;;;;;;;;6210635;22;19969;-89
2022/10/18 08:05:33;;;;;;;;;;;;;;;;;;6210952;22;19926;-90
2022/10/18 08:08:02;;;;;;;;;;;;;;;;;;6209316;22;19998;-90
2022/10/18 08:10:33;;;;;;;;;;;;;;;;;;6237063;22;20283;-90
2022/10/18 08:13:08;;;;;;;;;;;;;;;;;;6214137;22;19925;-91
2022/10/18 08:15:34;;;;;;;;;;;;;;;;;;6210452;22;20392;-91
2022/10/18 08:18:02;;;;;;;;;;;;;;;;;;6234241;22;20320;-90
2022/10/18 08:20:36;;;;;;;;;;;;;;;;;;6211814;22;19957;-90
2022/10/18 08:23:07;;;;;;;;;;;;;;;;;;6210826;22;19961;-90
2022/10/18 08:25:33;;;;;;;;;;;;;;;;;;6262498;22;19919;-90
2022/10/18 08:28:02;;;;;;;;;;;;;;;;;;6209682;22;19925;-90
2022/10/18 08:30:31;;;;;;;;;;;;;;;;;;6234124;22;20021;-90
2022/10/18 08:33:05;;;;;;;;;;;;;;;;;;6231538;22;19915;-91
2022/10/18 08:35:35;;;;;;;;;;;;;;;;;;6209298;22;19922;-90
2022/10/18 08:38:11;;;;;;;;;;;;;;;;;;;;;
2022/10/18 08:40:42;;;;;;;;;;;;;;;;;;6259051;22;19926;-90
2022/10/18 08:43:11;;;;;;;;;;;;;;;;;;6239759;22;20360;-90
2022/10/18 08:45:42;;;;;;;;;;;;;;;;;;6240490;22;19989;-91
2022/10/18 08:48:14;;;;;;;;;;;;;;;;;;6239516;22;20294;-90
2022/10/18 08:50:43;;;;;;;;;;;;;;;;;;6241727;22;19922;-90
2022/10/18 08:53:12;;;;;;;;;;;;;;;;;;6240307;22;19919;-90
2022/10/18 08:55:38;;;;;;;;;;;;;;;;;;6242066;22;19915;-90
2022/10/18 08:58:04;;;;;;;;;;;;;;;;;;6239666;22;20352;-90
2022/10/18 09:00:33;;;;;;;;;;;;;;;;;;6242782;22;19971;-90
2022/10/18 09:03:12;;;;;;;;;;;;;;;;;;;;;
2022/10/18 09:05:38;;;;;;;;;;;;;;;;;;6265690;22;19919;-90
2022/10/18 09:08:08;;;;;;;;;;;;;;;;;;6239016;22;20358;-88
2022/10/18 09:10:37;;;;;;;;;;;;;;;;;;6267954;22;19923;-89
2022/10/18 09:13:05;;;;;;;;;;;;;;;;;;6265448;22;19964;-89
2022/10/18 09:15:34;;;;;;;;;;;;;;;;;;6240029;22;19922;-90
2022/10/18 09:18:06;;;;;;;;;;;;;;;;;;6236192;22;20347;-90
2022/10/18 09:20:35;;;;;;;;;;;;;;;;;;6240082;22;19925;-90
2022/10/18 09:23:07;;;;;;;;;;;;;;;;;;6263212;22;19941;-90
2022/10/18 09:25:35;;;;;;;;;;;;;;;;;;6238692;22;20331;-89
2022/10/18 09:28:04;;;;;;;;;;;;;;;;;;6263505;22;20320;-90
2022/10/18 09:30:33;;;;;;;;;;;;;;;;;;6236755;22;20418;-90
2022/10/18 09:32:59;;;;;;;;;;;;;;;;;;6263819;22;20385;-90
2022/10/18 09:35:36;;;;;;;;;;;;;;;;;;6243652;22;19926;-91
2022/10/18 09:38:05;;;;;;;;;;;;;;;;;;6238187;22;19923;-90
2022/10/18 09:40:37;;;;;;;;;;;;;;;;;;6244759;22;19927;-90
2022/10/18 09:43:13;;;;;;;;;;;;;;;;;;;;;
2022/10/18 09:45:47;;;;;;;;;;;;;;;;;;6264304;22;19926;-90
2022/10/18 09:48:21;;;;;;;;;;;;;;;;;;6240948;22;19918;-91
2022/10/18 09:50:47;;;;;;;;;;;;;;;;;;6240957;22;20346;-90
2022/10/18 09:53:22;;;;;;;;;;;;;;;;;;6252023;22;19915;-90
2022/10/18 09:55:49;;;;;;;;;;;;;;;;;;6265494;22;19961;-90
2022/10/18 09:58:25;;;;;;;;;;;;;;;;;;6241637;22;19925;-91
2022/10/18 10:00:59;;;;;;;;;;;;;;;;;;6234406;22;19919;-91
2022/10/18 10:03:41;;;;;;;;;;;;;;;;;;6239740;22;20292;-92
2022/10/18 10:06:19;;;;;;;;;;;;;;;;;;6168437;23;19923;-92
2022/10/18 10:08:48;;;;;;;;;;;;;;;;;;6151696;23;20042;-91
2022/10/18 10:11:20;;;;;;;;;;;;;;;;;;6147289;23;19942;-91
2022/10/18 10:45:45;;;;;;;;;;;;;;;;;;6100088;23;19940;-91
2022/10/18 10:48:21;;;;;;;;;;;;;;;;;;6107390;23;19924;-91
2022/10/18 10:50:59;;;;;;;;;;;;;;;;;;6190880;22;19926;-90
2022/10/18 10:53:48;;;;;;;;;;;;;;;;;;6236555;22;19919;-91
2022/10/18 10:56:21;;;;;;;;;;;;;;;;;;6169213;23;19971;-91
2022/10/18 10:59:04;;;;;;;;;;;;;;;;;;6148475;23;19920;-91
2022/10/18 11:01:58;;;;;;;;;;;;;;;;;;;;;
2022/10/18 11:04:29;;;;;;;;;;;;;;;;;;6170832;23;19974;-91
2022/10/18 11:07:19;;;;;;;;;;;;;;;;;;6143520;23;19966;-91
2022/10/18 11:10:12;;;;;;;;;;;;;;;;;;6148476;23;19921;-91
2022/10/18 11:12:43;;;;;;;;;;;;;;;;;;6144517;23;19924;-92
2022/10/18 11:15:18;;;;;;;;;;;;;;;;;;6137089;23;19920;-91
2022/10/18 11:17:57;;;;;;;;;;;;;;;;;;6144228;23;19963;-92
2022/10/18 11:23:28;;;;;;;;;;;;;;;;;;6179515;23;19927;-91
2022/10/18 11:26:02;;;;;;;;;;;;;;;;;;6144726;23;19920;-91
2022/10/18 11:28:37;;;;;;;;;;;;;;;;;;6213670;22;19915;-91
2022/10/18 11:31:09;;;;;;;;;;;;;;;;;;6210092;22;19919;-90
2022/10/18 11:33:35;;;;;;;;;;;;;;;;;;6211577;22;19972;-91
2022/10/18 11:36:07;;;;;;;;;;;;;;;;;;6209783;22;20336;-91
2022/10/18 11:38:48;;;;;;;;;;;;;;;;;;6212091;22;19919;-90
2022/10/18 11:41:24;;;;;;;;;;;;;;;;;;6203988;22;20280;-92
2022/10/18 11:43:53;;;;;;;;;;;;;;;;;;6250232;22;19922;-92
2022/10/18 11:46:31;;;;;;;;;;;;;;;;;;6244985;22;19919;-92
2022/10/18 11:49:34;;;;;;;;;;;;;;;;;;6239356;22;20006;-92
2022/10/18 11:51:56;;;;;;;;;;;;;;;;;;6264718;22;20292;-90
2022/10/18 11:54:27;;;;;;;;;;;;;;;;;;6243402;22;20259;-91
2022/10/18 11:57:01;;;;;;;;;;;;;;;;;;6240229;22;20289;-91
2022/10/18 12:02:46;;;;;;;;;;;;;;;;;;6291961;22;20012;-91
2022/10/18 12:17:18;;;;;;;;;;;;;;;;;;6213010;23;19919;-91
2022/10/18 12:20:07;;;;;;;;;;;;;;;;;;6196748;23;19973;-92
2022/10/18 12:26:10;;;;;;;;;;;;;;;;;;;;;
2022/10/18 12:35:00;;;;;;;;;;;;;;;;;;6228274;23;19922;-91
2022/10/18 12:40:58;;;;;;;;;;;;;;;;;;6221465;23;19991;-92
2022/10/18 12:50:33;;;;;;;;;;;;;;;;;;;;;
2022/10/18 12:53:12;;;;;;;;;;;;;;;;;;;;;
2022/10/18 12:59:07;;;;;;;;;;;;;;;;;;6276007;22;19922;-92
2022/10/18 13:05:06;;;;;;;;;;;;;;;;;;6244453;22;19925;-92
2022/10/18 13:07:44;;;;;;;;;;;;;;;;;;6138032;23;20066;-92
2022/10/18 13:13:32;;;;;;;;;;;;;;;;;;6104823;23;19921;-91
2022/10/18 13:16:16;;;;;;;;;;;;;;;;;;6109826;23;19928;-91
2022/10/18 13:18:58;;;;;;;;;;;;;;;;;;6089808;23;19916;-91
2022/10/18 13:21:36;;;;;;;;;;;;;;;;;;6085729;23;19999;-91
2022/10/18 13:24:17;;;;;;;;;;;;;;;;;;;;;
2022/10/18 13:26:46;;;;;;;;;;;;;;;;;;6109871;23;19952;-90
2022/10/18 13:29:23;;;;;;;;;;;;;;;;;;6082499;23;20256;-92
2022/10/18 13:31:53;;;;;;;;;;;;;;;;;;6133897;23;19946;-91
2022/10/18 13:34:22;;;;;;;;;;;;;;;;;;6112127;23;19927;-92
2022/10/18 13:37:06;;;;;;;;;;;;;;;;;;;;;
2022/10/18 13:39:38;;;;;;;;;;;;;;;;;;6135744;23;19935;-92
2022/10/18 13:42:21;;;;;;;;;;;;;;;;;;6112254;23;19995;-92
2022/10/18 13:44:56;;;;;;;;;;;;;;;;;;6117939;23;20051;-92
2022/10/18 13:47:47;;;;;;;;;;;;;;;;;;;;;
2022/10/18 13:50:38;;;;;;;;;;;;;;;;;;6176685;23;19927;-91
2022/10/18 13:53:17;;;;;;;;;;;;;;;;;;;;;
2022/10/18 13:55:58;;;;;;;;;;;;;;;;;;6185111;23;20414;-92
2022/10/18 13:58:29;;;;;;;;;;;;;;;;;;6175552;23;19920;-91
2022/10/18 14:01:13;;;;;;;;;;;;;;;;;;6173402;23;20239;-92
2022/10/18 14:03:45;;;;;;;;;;;;;;;;;;6174480;23;19927;-92
2022/10/18 14:06:14;;;;;;;;;;;;;;;;;;6171214;23;19953;-92
2022/10/18 14:11:43;;;;;;;;;;;;;;;;;;6173769;23;20093;-92
2022/10/18 14:14:12;;;;;;;;;;;;;;;;;;6149064;23;19920;-92
2022/10/18 14:17:14;;;;;;;;;;;;;;;;;;6264200;22;19915;-92
2022/10/18 14:19:58;;;;;;;;;;;;;;;;;;6240469;22;19923;-92
2022/10/18 14:22:42;;;;;;;;;;;;;;;;;;6244312;22;19925;-93
2022/10/18 14:25:21;;;;;;;;;;;;;;;;;;6242597;22;19998;-91
2022/10/18 14:28:04;;;;;;;;;;;;;;;;;;6225607;22;19922;-91
2022/10/18 14:30:42;;;;;;;;;;;;;;;;;;6244627;22;19968;-91
2022/10/18 14:33:19;;;;;;;;;;;;;;;;;;6254080;22;20034;-91
2022/10/18 14:35:53;;;;;;;;;;;;;;;;;;6270012;22;19914;-92
2022/10/18 14:38:29;;;;;;;;;;;;;;;;;;6244226;22;19919;-91
2022/10/18 14:40:58;;;;;;;;;;;;;;;;;;6242838;22;20355;-92
2022/10/18 14:43:46;;;;;;;;;;;;;;;;;;;;;
2022/10/18 14:46:15;;;;;;;;;;;;;;;;;;6270694;22;19930;-92
2022/10/18 14:48:47;;;;;;;;;;;;;;;;;;6242594;22;20465;-91
2022/10/18 14:51:30;;;;;;;;;;;;;;;;;;6230464;23;20014;-91
2022/10/18 14:54:09;;;;;;;;;;;;;;;;;;;;;
2022/10/18 14:56:38;;;;;;;;;;;;;;;;;;6208641;23;19924;-91
2022/10/18 14:59:09;;;;;;;;;;;;;;;;;;6175885;23;19919;-91
2022/10/18 15:01:37;;;;;;;;;;;;;;;;;;6179818;23;19927;-91
2022/10/18 15:04:04;;;;;;;;;;;;;;;;;;6177902;23;19919;-90
2022/10/18 15:06:53;;;;;;;;;;;;;;;;;;6184698;23;19947;-91
2022/10/18 15:12:18;;;;;;;;;;;;;;;;;;6204298;23;20256;-92
2022/10/18 15:14:58;;;;;;;;;;;;;;;;;;6185033;23;20422;-91
2022/10/18 15:17:24;;;;;;;;;;;;;;;;;;6178668;23;20425;-90
2022/10/18 15:19:50;;;;;;;;;;;;;;;;;;6181375;23;20374;-89
2022/10/18 15:22:16;;;;;;;;;;;;;;;;;;6231852;22;19919;-86
2022/10/18 15:24:42;;;;;;;;;;;;;;;;;;6240089;22;19968;-89
2022/10/18 15:27:08;;;;;;;;;;;;;;;;;;6237499;22;19915;-90
2022/10/18 15:29:36;;;;;;;;;;;;;;;;;;6293744;22;19930;-91
2022/10/18 15:32:02;;;;;;;;;;;;;;;;;;6262267;22;20367;-92
2022/10/18 15:34:28;;;;;;;;;;;;;;;;;;6241976;22;19950;-91
2022/10/18 15:36:54;;;;;;;;;;;;;;;;;;6266016;22;20412;-91
2022/10/18 15:39:20;;;;;;;;;;;;;;;;;;6239480;22;19919;-91
2022/10/18 15:41:47;;;;;;;;;;;;;;;;;;6267365;22;19930;-92
2022/10/18 15:44:13;;;;;;;;;;;;;;;;;;6236199;22;19927;-88
2022/10/18 15:46:39;;;;;;;;;;;;;;;;;;6234032;22;19922;-90
2022/10/18 15:49:05;;;;;;;;;;;;;;;;;;6236183;22;20271;-89
2022/10/18 15:52:14;;;;;;;;;;;;;;;;;;6264000;22;19925;-90
2022/10/18 15:54:29;;;;;;;;;;;;;;;;;;6219577;23;19919;-91
2022/10/18 15:57:07;;;;;;;;;;;;;;;;;;6137971;23;20459;-90
2022/10/18 15:59:33;;;;;;;;;;;;;;;;;;6116693;23;20329;-90
2022/10/18 16:02:05;;;;;;;;;;;;;;;;;;6111943;23;19947;-91
2022/10/18 16:04:36;;;;;;;;;;;;;;;;;;6114102;23;19920;-91
2022/10/18 16:07:15;;;;;;;;;;;;;;;;;;6111005;23;20349;-90
2022/10/18 16:09:44;;;;;;;;;;;;;;;;;;6085257;23;19920;-90
2022/10/18 16:12:13;;;;;;;;;;;;;;;;;;6111201;23;20306;-91
2022/10/18 16:14:42;;;;;;;;;;;;;;;;;;6111134;23;19968;-90
2022/10/18 16:17:15;;;;;;;;;;;;;;;;;;6080531;23;20611;-91
2022/10/18 16:19:49;;;;;;;;;;;;;;;;;;6111588;23;20370;-92
2022/10/18 16:22:15;;;;;;;;;;;;;;;;;;6110073;23;20923;-91
2022/10/18 16:24:44;;;;;;;;;;;;;;;;;;6120160;23;19923;-91
2022/10/18 16:27:16;;;;;;;;;;;;;;;;;;6119473;23;19924;-91
2022/10/18 16:29:53;;;;;;;;;;;;;;;;;;6173663;23;19997;-90
2022/10/18 16:32:19;;;;;;;;;;;;;;;;;;6189141;23;19920;-91
2022/10/18 16:37:38;;;;;;;;;;;;;;;;;;6214266;22;19978;-91
2022/10/18 16:40:04;;;;;;;;;;;;;;;;;;6237502;22;19923;-92
2022/10/18 16:42:30;;;;;;;;;;;;;;;;;;6238342;22;20641;-92
2022/10/18 16:45:14;;;;;;;;;;;;;;;;;;6252540;22;19929;-91
2022/10/18 16:47:58;;;;;;;;;;;;;;;;;;6246586;22;20031;-89
2022/10/18 16:50:36;;;;;;;;;;;;;;;;;;6262210;22;19915;-90
2022/10/18 16:53:02;;;;;;;;;;;;;;;;;;6226248;22;19964;-91
2022/10/18 16:55:57;;;;;;;;;;;;;;;;;;6263377;22;19925;-91
2022/10/18 16:58:29;;;;;;;;;;;;;;;;;;6236091;22;20323;-90
2022/10/18 17:00:58;;;;;;;;;;;;;;;;;;6238383;22;19954;-89
2022/10/18 17:03:26;;;;;;;;;;;;;;;;;;6237832;22;20374;-90
2022/10/18 17:05:55;;;;;;;;;;;;;;;;;;6233246;22;19919;-90
2022/10/18 17:08:34;;;;;;;;;;;;;;;;;;;;;
2022/10/18 17:11:00;;;;;;;;;;;;;;;;;;6262447;22;19989;-89
2022/10/18 17:13:32;;;;;;;;;;;;;;;;;;6209187;22;20276;-91
2022/10/18 17:16:07;;;;;;;;;;;;;;;;;;6259721;22;20342;-90
2022/10/18 17:18:50;;;;;;;;;;;;;;;;;;6234989;22;19942;-91
2022/10/18 17:21:22;;;;;;;;;;;;;;;;;;6236605;22;19927;-92
2022/10/18 17:23:59;;;;;;;;;;;;;;;;;;6240782;22;19915;-91
2022/10/18 17:26:33;;;;;;;;;;;;;;;;;;6262961;22;19925;-91
2022/10/18 17:29:02;;;;;;;;;;;;;;;;;;6238593;22;19919;-90
2022/10/18 17:31:37;;;;;;;;;;;;;;;;;;6243123;22;19925;-92
2022/10/18 17:34:08;;;;;;;;;;;;;;;;;;6239790;22;19923;-91
2022/10/18 17:36:35;;;;;;;;;;;;;;;;;;6241186;22;19923;-91
2022/10/18 17:39:04;;;;;;;;;;;;;;;;;;6260647;22;20383;-90
2022/10/18 17:41:33;;;;;;;;;;;;;;;;;;6242012;22;19919;-91
2022/10/18 17:44:02;;;;;;;;;;;;;;;;;;6236383;22;19926;-91
2022/10/18 17:46:37;;;;;;;;;;;;;;;;;;6237397;22;19927;-91
2022/10/18 17:52:04;;;;;;;;;;;;;;;;;;6262881;22;19927;-91
2022/10/18 17:54:33;;;;;;;;;;;;;;;;;;6241895;22;19915;-92
2022/10/18 17:57:07;;;;;;;;;;;;;;;;;;6266864;22;19958;-92
2022/10/18 17:59:45;;;;;;;;;;;;;;;;;;6264239;22;19919;-90
2022/10/18 18:02:19;;;;;;;;;;;;;;;;;;6235270;22;19918;-91
2022/10/18 18:04:51;;;;;;;;;;;;;;;;;;6238468;22;19919;-90
2022/10/18 18:07:23;;;;;;;;;;;;;;;;;;6239189;22;19934;-90
2022/10/18 18:09:49;;;;;;;;;;;;;;;;;;6237828;22;20375;-90
2022/10/18 18:12:18;;;;;;;;;;;;;;;;;;6237088;22;19919;-89
2022/10/18 18:14:53;;;;;;;;;;;;;;;;;;6237830;22;19930;-91
2022/10/18 18:17:22;;;;;;;;;;;;;;;;;;6232489;22;19954;-90
2022/10/18 18:19:51;;;;;;;;;;;;;;;;;;6241403;22;19930;-90
2022/10/18 18:22:17;;;;;;;;;;;;;;;;;;6234508;22;20036;-90
2022/10/18 18:24:52;;;;;;;;;;;;;;;;;;6237468;22;19918;-90
2022/10/18 18:27:33;;;;;;;;;;;;;;;;;;6237234;22;20007;-90
2022/10/18 18:30:08;;;;;;;;;;;;;;;;;;6235127;22;20426;-90
2022/10/18 18:32:34;;;;;;;;;;;;;;;;;;6235182;22;20035;-90
2022/10/18 18:35:13;;;;;;;;;;;;;;;;;;;;;
2022/10/18 18:37:44;;;;;;;;;;;;;;;;;;6262365;22;20026;-90
2022/10/18 18:40:28;;;;;;;;;;;;;;;;;;6265280;22;20335;-90
2022/10/18 18:43:13;;;;;;;;;;;;;;;;;;6232594;22;19930;-90
2022/10/18 18:45:44;;;;;;;;;;;;;;;;;;6236140;22;19994;-90
2022/10/18 18:48:13;;;;;;;;;;;;;;;;;;6284689;22;20045;-91
2022/10/18 18:50:42;;;;;;;;;;;;;;;;;;6237360;22;20320;-91
2022/10/18 18:53:16;;;;;;;;;;;;;;;;;;6262154;22;19919;-90
2022/10/18 18:55:51;;;;;;;;;;;;;;;;;;6265304;22;19918;-90
2022/10/18 18:58:32;;;;;;;;;;;;;;;;;;6239024;22;19923;-91
2022/10/18 19:01:04;;;;;;;;;;;;;;;;;;6235939;22;19919;-91
2022/10/18 19:03:37;;;;;;;;;;;;;;;;;;6241043;22;19918;-90
2022/10/18 19:06:05;;;;;;;;;;;;;;;;;;6236241;22;20262;-90
2022/10/18 19:08:34;;;;;;;;;;;;;;;;;;6262970;22;19923;-91
2022/10/18 19:11:06;;;;;;;;;;;;;;;;;;6234725;22;19923;-90
2022/10/18 19:13:32;;;;;;;;;;;;;;;;;;6241279;22;19971;-90
2022/10/18 19:15:58;;;;;;;;;;;;;;;;;;6234003;22;19926;-91